Aviation Digital Data Service (ADDS)

Output produced by METARs form (1801 UTC 23 August 2014)
found at http://aviationweather.gov/adds/metars/
 
KBPT 231720Z 2318/2418 17007KT P6SM SCT035 
     FM240100 00000KT P6SM SCT020